Stolt Efficiency — ZCSP5 — position and weather

sailwx.info

Track history (hours):
 
Tides and Currents Weather Stations Pressure Air Temp Water Temp Dewpoint Dewpoint Depression Visibility Wind Speed Wind Dir Waves Ship Positions

Stolt Efficiency

Last reported at 2017-Dec-09 06:30 UTC. Time now 2017-Dec-15 08:06 UTC.
Position N 23°39' E 122°42'.

Length 176 m; draft 6 m.

Type: Ship. MMSI: 319488000.

Date/timePositionNaut miles runAvg speedWind from/ knotsBaromVisibWave heightAir tempDewpointWater temp
2017-Dec-09 06:30N 23°39' E 122°42'713.8
2017-Dec-09 06:01N 23°46' E 122°42'713.6
2017-Dec-09 05:31N 23°53' E 122°41'713.5
2017-Dec-09 05:00N 23°59' E 122°41'713.2
2017-Dec-09 04:30N 24°06' E 122°41'612.8
2017-Dec-09 04:01N 24°12' E 122°41'611.9
2017-Dec-09 03:31N 24°18' E 122°41'611.3
2017-Dec-09 03:01N 24°24' E 122°40'611.0
2017-Dec-09 02:31N 24°29' E 122°42'611.1
2017-Dec-09 02:01N 24°35' E 122°44'510.6
2017-Dec-09 01:31N 24°40' E 122°45'510.2
2017-Dec-09 01:01N 24°45' E 122°46'510.6
2017-Dec-09 00:31N 24°50' E 122°47'511.0
2017-Dec-09 00:01N 24°56' E 122°47'611.3
2017-Dec-08 23:31N 25°01' E 122°48'510.6
2017-Dec-08 23:01N 25°06' E 122°49'510.3
2017-Dec-08 22:30N 25°12' E 122°50'510.3
2017-Dec-08 22:01N 25°17' E 122°50'35111.3
2017-Dec-07 14:55N 31°05' E 122°02'3 8.4
2017-Dec-07 14:30N 31°06' E 121°58'5 9.5
2017-Dec-07 14:00N 31°09' E 121°53'611.4
2017-Dec-07 13:28N 31°13' E 121°48'  
Track history (hours):
 
Tides and Currents Weather Stations Pressure Air Temp Water Temp Dewpoint Dewpoint Depression Visibility Wind Speed Wind Dir Waves Ship Positions

Stolt Efficiency

Last reported at 2017-Dec-09 06:30 UTC. Time now 2017-Dec-15 08:06 UTC.
Position N 23°39' E 122°42'.

Length 176 m; draft 6 m.

Type: Ship. MMSI: 319488000.

Date/timePositionNaut miles runAvg speedWind from/ knotsBaromVisibWave heightAir tempDewpointWater temp
2017-Dec-09 06:30N 23°39' E 122°42'713.8
2017-Dec-09 06:01N 23°46' E 122°42'713.6
2017-Dec-09 05:31N 23°53' E 122°41'713.5
2017-Dec-09 05:00N 23°59' E 122°41'713.2
2017-Dec-09 04:30N 24°06' E 122°41'612.8
2017-Dec-09 04:01N 24°12' E 122°41'611.9
2017-Dec-09 03:31N 24°18' E 122°41'611.3
2017-Dec-09 03:01N 24°24' E 122°40'611.0
2017-Dec-09 02:31N 24°29' E 122°42'611.1
2017-Dec-09 02:01N 24°35' E 122°44'510.6
2017-Dec-09 01:31N 24°40' E 122°45'510.2
2017-Dec-09 01:01N 24°45' E 122°46'510.6
2017-Dec-09 00:31N 24°50' E 122°47'511.0
2017-Dec-09 00:01N 24°56' E 122°47'611.3
2017-Dec-08 23:31N 25°01' E 122°48'510.6
2017-Dec-08 23:01N 25°06' E 122°49'510.3
2017-Dec-08 22:30N 25°12' E 122°50'510.3
2017-Dec-08 22:01N 25°17' E 122°50'35111.3
2017-Dec-07 14:55N 31°05' E 122°02'3 8.4
2017-Dec-07 14:30N 31°06' E 121°58'5 9.5
2017-Dec-07 14:00N 31°09' E 121°53'611.4
2017-Dec-07 13:28N 31°13' E 121°48'  

Dump ship's entire track history